sensor_id;sensor_type;location;lat;lon;timestamp;pressure;altitude;pressure_sealevel;temperature;humidity
78573;BME280;67862;0.000;0.000;2023-09-19T00:00:45;98641.06;;;24.55;52.92
78573;BME280;67862;0.000;0.000;2023-09-19T00:03:12;98637.53;;;24.55;53.08
78573;BME280;67862;0.000;0.000;2023-09-19T00:05:38;98639.94;;;24.57;52.90
78573;BME280;67862;0.000;0.000;2023-09-19T00:08:03;98639.94;;;24.57;52.89
78573;BME280;67862;0.000;0.000;2023-09-19T00:10:32;98644.63;;;24.56;52.71
78573;BME280;67862;0.000;0.000;2023-09-19T00:13:00;98641.88;;;24.56;52.65
78573;BME280;67862;0.000;0.000;2023-09-19T00:15:37;98639.13;;;24.56;52.80
78573;BME280;67862;0.000;0.000;2023-09-19T00:18:02;98641.88;;;24.56;52.91
78573;BME280;67862;0.000;0.000;2023-09-19T00:23:43;98640.75;;;24.57;52.87
78573;BME280;67862;0.000;0.000;2023-09-19T00:26:09;98638.00;;;24.57;53.03
78573;BME280;67862;0.000;0.000;2023-09-19T00:28:34;98632.50;;;24.57;52.86
78573;BME280;67862;0.000;0.000;2023-09-19T00:31:00;98638.00;;;24.57;52.99
78573;BME280;67862;0.000;0.000;2023-09-19T00:33:27;98636.88;;;24.58;52.75
78573;BME280;67862;0.000;0.000;2023-09-19T00:35:54;98634.13;;;24.58;53.00
78573;BME280;67862;0.000;0.000;2023-09-19T00:38:21;98630.56;;;24.58;52.69
78573;BME280;67862;0.000;0.000;2023-09-19T00:40:48;98627.03;;;24.57;53.06
78573;BME280;67862;0.000;0.000;2023-09-19T00:43:14;98622.34;;;24.58;53.19
78573;BME280;67862;0.000;0.000;2023-09-19T00:45:42;98620.72;;;24.57;52.82
78573;BME280;67862;0.000;0.000;2023-09-19T00:48:08;98623.13;;;24.58;52.95
78573;BME280;67862;0.000;0.000;2023-09-19T00:50:34;98618.78;;;24.57;52.98
78573;BME280;67862;0.000;0.000;2023-09-19T00:53:03;98627.03;;;24.57;52.82
78573;BME280;67862;0.000;0.000;2023-09-19T00:55:33;98616.03;;;24.57;52.77
78573;BME280;67862;0.000;0.000;2023-09-19T00:58:02;98625.41;;;24.56;52.91
78573;BME280;67862;0.000;0.000;2023-09-19T01:00:28;98624.28;;;24.57;52.76
78573;BME280;67862;0.000;0.000;2023-09-19T01:02:53;98618.78;;;24.57;52.83
78573;BME280;67862;0.000;0.000;2023-09-19T01:05:19;98621.53;;;24.57;52.76
78573;BME280;67862;0.000;0.000;2023-09-19T01:07:44;98618.78;;;24.57;52.90
78573;BME280;67862;0.000;0.000;2023-09-19T01:10:14;98618.78;;;24.57;52.86
78573;BME280;67862;0.000;0.000;2023-09-19T01:18:13;98615.25;;;24.57;52.86
78573;BME280;67862;0.000;0.000;2023-09-19T01:31:06;98614.56;;;24.60;52.98
78573;BME280;67862;0.000;0.000;2023-09-19T01:36:18;98616.84;;;24.58;53.02
78573;BME280;67862;0.000;0.000;2023-09-19T01:38:46;98614.91;;;24.58;53.13
78573;BME280;67862;0.000;0.000;2023-09-19T01:41:13;98609.41;;;24.58;52.86
78573;BME280;67862;0.000;0.000;2023-09-19T01:43:42;98612.16;;;24.58;53.01
78573;BME280;67862;0.000;0.000;2023-09-19T01:51:37;98603.94;;;24.58;52.94
78573;BME280;67862;0.000;0.000;2023-09-19T01:54:09;98605.53;;;24.59;52.83
78573;BME280;67862;0.000;0.000;2023-09-19T01:59:24;98608.28;;;24.59;53.23
78573;BME280;67862;0.000;0.000;2023-09-19T02:01:52;98602.78;;;24.59;53.33
78573;BME280;67862;0.000;0.000;2023-09-19T02:04:18;98601.66;;;24.60;53.22
78573;BME280;67862;0.000;0.000;2023-09-19T02:06:43;98613.44;;;24.61;53.43
78573;BME280;67862;0.000;0.000;2023-09-19T02:09:12;98608.78;;;24.61;52.92
78573;BME280;67862;0.000;0.000;2023-09-19T02:11:39;98608.78;;;24.61;53.09
78573;BME280;67862;0.000;0.000;2023-09-19T02:14:04;98610.69;;;24.61;53.23
78573;BME280;67862;0.000;0.000;2023-09-19T02:16:33;98598.91;;;24.60;53.13
78573;BME280;67862;0.000;0.000;2023-09-19T02:18:59;98603.31;;;24.61;53.16
78573;BME280;67862;0.000;0.000;2023-09-19T02:21:25;98609.91;;;24.60;53.08
78573;BME280;67862;0.000;0.000;2023-09-19T02:23:50;98603.31;;;24.61;53.00
78573;BME280;67862;0.000;0.000;2023-09-19T02:26:16;98607.66;;;24.62;53.39
78573;BME280;67862;0.000;0.000;2023-09-19T02:28:43;98600.56;;;24.61;53.39
78573;BME280;67862;0.000;0.000;2023-09-19T02:31:11;98595.06;;;24.61;53.12
78573;BME280;67862;0.000;0.000;2023-09-19T02:33:36;98597.81;;;24.61;53.06
78573;BME280;67862;0.000;0.000;2023-09-19T02:36:02;98592.31;;;24.61;53.03
78573;BME280;67862;0.000;0.000;2023-09-19T02:38:29;98591.19;;;24.62;53.39
78573;BME280;67862;0.000;0.000;2023-09-19T02:40:54;98585.69;;;24.62;53.10
78573;BME280;67862;0.000;0.000;2023-09-19T02:43:20;98588.44;;;24.62;53.03
78573;BME280;67862;0.000;0.000;2023-09-19T02:45:46;98590.38;;;24.62;53.16
78573;BME280;67862;0.000;0.000;2023-09-19T02:48:23;98590.69;;;24.60;53.09
78573;BME280;67862;0.000;0.000;2023-09-19T02:50:50;98588.44;;;24.62;53.53
78573;BME280;67862;0.000;0.000;2023-09-19T02:53:15;98588.44;;;24.62;53.41
78573;BME280;67862;0.000;0.000;2023-09-19T02:55:41;98596.69;;;24.62;53.29
78573;BME280;67862;0.000;0.000;2023-09-19T02:58:07;98587.13;;;24.60;53.32
78573;BME280;67862;0.000;0.000;2023-09-19T03:00:33;98591.00;;;24.59;53.49
78573;BME280;67862;0.000;0.000;2023-09-19T03:03:00;98587.94;;;24.60;53.37
78573;BME280;67862;0.000;0.000;2023-09-19T03:05:27;98587.13;;;24.60;53.78
78573;BME280;67862;0.000;0.000;2023-09-19T03:07:55;98590.38;;;24.62;54.49
78573;BME280;67862;0.000;0.000;2023-09-19T03:10:21;98588.44;;;24.62;53.77
78573;BME280;67862;0.000;0.000;2023-09-19T03:12:47;98584.09;;;24.61;53.82
78573;BME280;67862;0.000;0.000;2023-09-19T03:15:12;98588.75;;;24.61;53.85
78573;BME280;67862;0.000;0.000;2023-09-19T03:17:42;98581.66;;;24.60;53.63
78573;BME280;67862;0.000;0.000;2023-09-19T03:20:08;98572.28;;;24.61;53.40
78573;BME280;67862;0.000;0.000;2023-09-19T03:22:34;98564.38;;;24.59;53.67
78573;BME280;67862;0.000;0.000;2023-09-19T03:24:59;98574.56;;;24.59;53.73
78573;BME280;67862;0.000;0.000;2023-09-19T03:27:25;98576.50;;;24.58;54.19
78573;BME280;67862;0.000;0.000;2023-09-19T03:29:52;98579.22;;;24.58;53.43
78573;BME280;67862;0.000;0.000;2023-09-19T03:32:18;98589.41;;;24.58;53.38
78573;BME280;67862;0.000;0.000;2023-09-19T03:34:44;98583.13;;;24.57;53.38
78573;BME280;67862;0.000;0.000;2023-09-19T03:37:09;98596.03;;;24.57;53.55
78573;BME280;67862;0.000;0.000;2023-09-19T03:39:35;98585.38;;;24.55;53.58
78573;BME280;67862;0.000;0.000;2023-09-19T03:42:00;98581.50;;;24.56;53.75
78573;BME280;67862;0.000;0.000;2023-09-19T03:44:26;98582.63;;;24.55;53.66
78573;BME280;67862;0.000;0.000;2023-09-19T03:46:51;98577.97;;;24.55;53.96
78573;BME280;67862;0.000;0.000;2023-09-19T03:49:17;98586.19;;;24.55;53.52
78573;BME280;67862;0.000;0.000;2023-09-19T03:51:42;98578.28;;;24.54;54.04
78573;BME280;67862;0.000;0.000;2023-09-19T03:54:07;98580.22;;;24.53;53.61
78573;BME280;67862;0.000;0.000;2023-09-19T03:56:33;98581.03;;;24.54;53.55
78573;BME280;67862;0.000;0.000;2023-09-19T03:58:58;98581.34;;;24.52;53.92
78573;BME280;67862;0.000;0.000;2023-09-19T04:01:24;98581.03;;;24.54;54.06
78573;BME280;67862;0.000;0.000;2023-09-19T04:03:49;98591.69;;;24.55;54.80
78573;BME280;67862;0.000;0.000;2023-09-19T04:06:17;98599.91;;;24.55;53.83
78573;BME280;67862;0.000;0.000;2023-09-19T04:08:43;98597.16;;;24.55;54.07
78573;BME280;67862;0.000;0.000;2023-09-19T04:11:09;98599.09;;;24.55;54.13
78573;BME280;67862;0.000;0.000;2023-09-19T04:13:35;98588.47;;;24.53;54.08
78573;BME280;67862;0.000;0.000;2023-09-19T04:16:01;98601.03;;;24.54;54.03
78573;BME280;67862;0.000;0.000;2023-09-19T04:18:27;98593.94;;;24.53;54.01
78573;BME280;67862;0.000;0.000;2023-09-19T04:20:56;98597.03;;;24.52;54.16
78573;BME280;67862;0.000;0.000;2023-09-19T04:23:21;98602.50;;;24.52;53.96
78573;BME280;67862;0.000;0.000;2023-09-19T04:25:47;98605.25;;;24.52;54.14
78573;BME280;67862;0.000;0.000;2023-09-19T04:28:14;98597.03;;;24.52;54.46
78573;BME280;67862;0.000;0.000;2023-09-19T04:30:40;98601.69;;;24.51;54.63
78573;BME280;67862;0.000;0.000;2023-09-19T04:33:06;98608.00;;;24.52;54.58
78573;BME280;67862;0.000;0.000;2023-09-19T04:35:31;98608.00;;;24.52;54.16
78573;BME280;67862;0.000;0.000;2023-09-19T04:37:57;98605.25;;;24.52;54.63
78573;BME280;67862;0.000;0.000;2023-09-19T04:40:23;98609.94;;;24.51;54.08
78573;BME280;67862;0.000;0.000;2023-09-19T04:42:53;98607.19;;;24.51;54.14
78573;BME280;67862;0.000;0.000;2023-09-19T04:45:24;98616.22;;;24.52;54.33
78573;BME280;67862;0.000;0.000;2023-09-19T04:47:50;98616.22;;;24.52;54.35
78573;BME280;67862;0.000;0.000;2023-09-19T04:50:15;98612.69;;;24.51;54.25
78573;BME280;67862;0.000;0.000;2023-09-19T04:52:42;98608.28;;;24.50;54.27
78573;BME280;67862;0.000;0.000;2023-09-19T04:55:11;98618.16;;;24.51;54.25
78573;BME280;67862;0.000;0.000;2023-09-19T04:57:41;98621.22;;;24.50;54.22
78573;BME280;67862;0.000;0.000;2023-09-19T05:00:07;98622.81;;;24.51;54.47
78573;BME280;67862;0.000;0.000;2023-09-19T05:02:37;98633.00;;;24.50;54.13
78573;BME280;67862;0.000;0.000;2023-09-19T05:05:03;98625.56;;;24.51;54.64
78573;BME280;67862;0.000;0.000;2023-09-19T05:07:30;98629.16;;;24.51;54.42
78573;BME280;67862;0.000;0.000;2023-09-19T05:09:55;98633.78;;;24.51;54.32
78573;BME280;67862;0.000;0.000;2023-09-19T05:12:20;98634.94;;;24.50;54.68
78573;BME280;67862;0.000;0.000;2023-09-19T05:14:46;98636.06;;;24.49;54.12
78573;BME280;67862;0.000;0.000;2023-09-19T05:17:11;98638.81;;;24.49;54.98
78573;BME280;67862;0.000;0.000;2023-09-19T05:19:36;98644.78;;;24.51;54.72
78573;BME280;67862;0.000;0.000;2023-09-19T05:22:03;98646.41;;;24.52;55.19
78573;BME280;67862;0.000;0.000;2023-09-19T05:24:30;98637.53;;;24.46;54.64
78573;BME280;67862;0.000;0.000;2023-09-19T05:26:56;98634.78;;;24.38;54.80
78573;BME280;67862;0.000;0.000;2023-09-19T05:29:22;98632.03;;;24.38;54.98
78573;BME280;67862;0.000;0.000;2023-09-19T05:31:47;98635.91;;;24.37;54.55
78573;BME280;67862;0.000;0.000;2023-09-19T05:34:15;98639.13;;;24.39;54.95
78573;BME280;67862;0.000;0.000;2023-09-19T05:36:40;98654.31;;;24.36;55.18
78573;BME280;67862;0.000;0.000;2023-09-19T05:39:06;98637.53;;;24.38;55.12
78573;BME280;67862;0.000;0.000;2023-09-19T05:41:35;98649.97;;;24.44;55.73
78573;BME280;67862;0.000;0.000;2023-09-19T05:44:05;98649.31;;;24.38;55.54
78573;BME280;67862;0.000;0.000;2023-09-19T05:46:32;98654.16;;;24.33;55.85
78573;BME280;67862;0.000;0.000;2023-09-19T05:48:57;98647.03;;;24.32;55.96
78573;BME280;67862;0.000;0.000;2023-09-19T05:51:23;98643.78;;;24.21;55.78
78573;BME280;67862;0.000;0.000;2023-09-19T05:53:48;98651.84;;;24.17;55.95
78573;BME280;67862;0.000;0.000;2023-09-19T05:56:15;98656.38;;;24.13;55.91
78573;BME280;67862;0.000;0.000;2023-09-19T05:58:44;98662.00;;;24.17;55.98
78573;BME280;67862;0.000;0.000;2023-09-19T06:01:09;98660.88;;;24.18;56.00
78573;BME280;67862;0.000;0.000;2023-09-19T06:03:35;98667.34;;;24.13;55.88
78573;BME280;67862;0.000;0.000;2023-09-19T06:06:03;98665.88;;;24.07;55.83
78573;BME280;67862;0.000;0.000;2023-09-19T06:08:31;98680.41;;;24.08;56.17
78573;BME280;67862;0.000;0.000;2023-09-19T06:10:57;98674.75;;;24.04;55.89
78573;BME280;67862;0.000;0.000;2023-09-19T06:13:22;98681.66;;;24.02;55.95
78573;BME280;67862;0.000;0.000;2023-09-19T06:15:50;98685.50;;;23.92;55.70
78573;BME280;67862;0.000;0.000;2023-09-19T06:18:16;98683.91;;;23.91;55.85
78573;BME280;67862;0.000;0.000;2023-09-19T06:20:48;98673.91;;;23.86;56.17
78573;BME280;67862;0.000;0.000;2023-09-19T06:23:16;98680.19;;;23.87;55.97
78573;BME280;67862;0.000;0.000;2023-09-19T06:25:42;98676.31;;;23.88;55.79
78573;BME280;67862;0.000;0.000;2023-09-19T06:28:08;98689.69;;;23.81;55.57
78573;BME280;67862;0.000;0.000;2023-09-19T06:30:37;98690.97;;;23.75;55.49
78573;BME280;67862;0.000;0.000;2023-09-19T06:33:06;98688.03;;;23.71;55.79
78573;BME280;67862;0.000;0.000;2023-09-19T06:35:32;98692.34;;;23.63;55.49
78573;BME280;67862;0.000;0.000;2023-09-19T06:37:58;98700.41;;;23.60;55.57
78573;BME280;67862;0.000;0.000;2023-09-19T06:40:24;98696.22;;;23.62;55.81
78573;BME280;67862;0.000;0.000;2023-09-19T06:42:50;98702.97;;;23.56;55.69
78573;BME280;67862;0.000;0.000;2023-09-19T06:45:17;98705.19;;;23.54;55.70
78573;BME280;67862;0.000;0.000;2023-09-19T06:47:46;98714.91;;;23.60;55.43
78573;BME280;67862;0.000;0.000;2023-09-19T06:50:15;98719.88;;;23.58;55.46
78573;BME280;67862;0.000;0.000;2023-09-19T06:52:47;98713.88;;;23.48;55.69
78573;BME280;67862;0.000;0.000;2023-09-19T06:55:18;98732.09;;;23.52;55.26
78573;BME280;67862;0.000;0.000;2023-09-19T06:57:44;98726.63;;;23.52;55.78
78573;BME280;67862;0.000;0.000;2023-09-19T07:00:10;98729.69;;;23.51;55.31
78573;BME280;67862;0.000;0.000;2023-09-19T07:03:05;98735.47;;;23.49;55.44
78573;BME280;67862;0.000;0.000;2023-09-19T07:05:29;98737.88;;;23.51;55.65
78573;BME280;67862;0.000;0.000;2023-09-19T07:07:56;98733.53;;;23.50;55.66
78573;BME280;67862;0.000;0.000;2023-09-19T07:10:24;98734.50;;;23.45;55.87
78573;BME280;67862;0.000;0.000;2023-09-19T07:12:57;98746.06;;;23.42;56.26
78573;BME280;67862;0.000;0.000;2023-09-19T07:15:23;98749.94;;;23.41;56.08
78573;BME280;67862;0.000;0.000;2023-09-19T07:17:50;98757.34;;;23.40;56.04
78573;BME280;67862;0.000;0.000;2023-09-19T07:20:15;98752.28;;;23.34;56.21
78573;BME280;67862;0.000;0.000;2023-09-19T07:22:41;98757.91;;;23.29;56.44
78573;BME280;67862;0.000;0.000;2023-09-19T07:25:07;98760.50;;;23.34;56.17
78573;BME280;67862;0.000;0.000;2023-09-19T07:27:32;98767.59;;;23.35;56.58
78573;BME280;67862;0.000;0.000;2023-09-19T07:29:57;98777.84;;;23.21;56.78
78573;BME280;67862;0.000;0.000;2023-09-19T07:32:24;98773.34;;;23.25;56.88
78573;BME280;67862;0.000;0.000;2023-09-19T07:34:49;98782.19;;;23.22;56.79
78573;BME280;67862;0.000;0.000;2023-09-19T07:37:17;98782.09;;;23.27;56.29
78573;BME280;67862;0.000;0.000;2023-09-19T07:39:43;98786.69;;;23.18;56.68
78573;BME280;67862;0.000;0.000;2023-09-19T07:42:10;98780.84;;;23.10;57.45
78573;BME280;67862;0.000;0.000;2023-09-19T07:44:36;98781.97;;;23.09;57.39
78573;BME280;67862;0.000;0.000;2023-09-19T07:47:02;98794.13;;;23.03;57.52
78573;BME280;67862;0.000;0.000;2023-09-19T07:49:28;98798.19;;;23.06;57.28
78573;BME280;67862;0.000;0.000;2023-09-19T07:51:53;98796.56;;;23.05;57.48
78573;BME280;67862;0.000;0.000;2023-09-19T07:54:19;98800.41;;;23.04;57.90
78573;BME280;67862;0.000;0.000;2023-09-19T07:56:46;98803.66;;;23.06;57.67
78573;BME280;67862;0.000;0.000;2023-09-19T07:59:11;98805.66;;;23.14;57.48
78573;BME280;67862;0.000;0.000;2023-09-19T08:01:38;98800.50;;;23.12;57.68
78573;BME280;67862;0.000;0.000;2023-09-19T08:04:07;98803.13;;;23.18;57.32
78573;BME280;67862;0.000;0.000;2023-09-19T08:06:32;98803.59;;;23.20;57.96
78573;BME280;67862;0.000;0.000;2023-09-19T08:08:57;98796.31;;;23.15;57.91
78573;BME280;67862;0.000;0.000;2023-09-19T08:11:23;98810.81;;;23.16;58.12
78573;BME280;67862;0.000;0.000;2023-09-19T08:13:50;98809.91;;;23.20;57.95
78573;BME280;67862;0.000;0.000;2023-09-19T08:16:18;98802.00;;;23.19;58.13
78573;BME280;67862;0.000;0.000;2023-09-19T08:18:48;98806.84;;;23.22;57.88
78573;BME280;67862;0.000;0.000;2023-09-19T08:21:14;98805.97;;;23.12;58.08
78573;BME280;67862;0.000;0.000;2023-09-19T08:23:39;98819.72;;;22.99;58.57
78573;BME280;67862;0.000;0.000;2023-09-19T08:26:06;98813.63;;;23.02;58.29
78573;BME280;67862;0.000;0.000;2023-09-19T08:28:34;98820.47;;;23.13;58.12
78573;BME280;67862;0.000;0.000;2023-09-19T08:31:03;98827.44;;;23.19;57.99
78573;BME280;67862;0.000;0.000;2023-09-19T08:33:32;98840.94;;;23.16;58.24
78573;BME280;67862;0.000;0.000;2023-09-19T08:35:58;98840.44;;;23.13;58.00
78573;BME280;67862;0.000;0.000;2023-09-19T08:38:24;98841.00;;;23.02;58.47
78573;BME280;67862;0.000;0.000;2023-09-19T08:41:16;98839.94;;;23.11;58.10
78573;BME280;67862;0.000;0.000;2023-09-19T08:43:40;98837.44;;;23.01;58.76
78573;BME280;67862;0.000;0.000;2023-09-19T08:48:36;98846.28;;;22.98;58.68
78573;BME280;67862;0.000;0.000;2023-09-19T08:51:12;98847.59;;;23.01;58.74
78573;BME280;67862;0.000;0.000;2023-09-19T08:53:51;98852.97;;;22.92;58.98
78573;BME280;67862;0.000;0.000;2023-09-19T08:56:18;98870.28;;;23.01;58.79
78573;BME280;67862;0.000;0.000;2023-09-19T08:58:59;98871.03;;;22.93;58.75
78573;BME280;67862;0.000;0.000;2023-09-19T09:01:28;98865.44;;;22.98;58.31
78573;BME280;67862;0.000;0.000;2023-09-19T09:03:55;98879.53;;;22.92;58.79
78573;BME280;67862;0.000;0.000;2023-09-19T09:06:21;98889.69;;;22.91;58.65
78573;BME280;67862;0.000;0.000;2023-09-19T09:08:47;98907.09;;;22.95;58.55
78573;BME280;67862;0.000;0.000;2023-09-19T09:11:15;98894.75;;;22.84;58.76
78573;BME280;67862;0.000;0.000;2023-09-19T09:13:42;98905.09;;;22.87;58.43
78573;BME280;67862;0.000;0.000;2023-09-19T09:16:10;98901.94;;;22.80;58.79
78573;BME280;67862;0.000;0.000;2023-09-19T09:18:39;98902.75;;;22.80;58.53
78573;BME280;67862;0.000;0.000;2023-09-19T09:21:05;98894.31;;;22.77;58.51
78573;BME280;67862;0.000;0.000;2023-09-19T09:23:30;98892.84;;;22.71;58.75
78573;BME280;67862;0.000;0.000;2023-09-19T09:25:59;98893.16;;;22.69;59.08
78573;BME280;67862;0.000;0.000;2023-09-19T09:28:31;98893.53;;;22.76;58.93
78573;BME280;67862;0.000;0.000;2023-09-19T09:31:00;98885.84;;;22.78;58.59
78573;BME280;67862;0.000;0.000;2023-09-19T09:33:33;98887.63;;;22.83;58.71
78573;BME280;67862;0.000;0.000;2023-09-19T09:35:59;98878.72;;;22.77;58.91
78573;BME280;67862;0.000;0.000;2023-09-19T09:38:30;98869.00;;;22.85;58.62
78573;BME280;67862;0.000;0.000;2023-09-19T09:41:09;98839.38;;;23.01;59.02
78573;BME280;67862;0.000;0.000;2023-09-19T09:43:38;98818.28;;;23.01;58.59
